sensor_id;sensor_type;location;lat;lon;timestamp;P1;durP1;ratioP1;P2;durP2;ratioP2
6785;SDS011;3430;51.192;6.048;2023-11-21T00:00:46;2.83;;;2.60;;
6785;SDS011;3430;51.192;6.048;2023-11-21T00:03:12;2.93;;;2.43;;
6785;SDS011;3430;51.192;6.048;2023-11-21T00:05:40;3.67;;;2.80;;
6785;SDS011;3430;51.192;6.048;2023-11-21T00:08:06;2.80;;;2.53;;
6785;SDS011;3430;51.192;6.048;2023-11-21T00:10:31;4.27;;;2.63;;
6785;SDS011;3430;51.192;6.048;2023-11-21T00:12:57;2.83;;;2.63;;
6785;SDS011;3430;51.192;6.048;2023-11-21T00:15:22;2.67;;;2.43;;
6785;SDS011;3430;51.192;6.048;2023-11-21T00:17:48;2.70;;;2.27;;
6785;SDS011;3430;51.192;6.048;2023-11-21T00:20:13;2.43;;;2.23;;
6785;SDS011;3430;51.192;6.048;2023-11-21T00:22:39;2.77;;;2.57;;
6785;SDS011;3430;51.192;6.048;2023-11-21T00:25:05;3.27;;;2.50;;
6785;SDS011;3430;51.192;6.048;2023-11-21T00:27:31;2.67;;;2.47;;
6785;SDS011;3430;51.192;6.048;2023-11-21T00:29:56;2.53;;;2.20;;
6785;SDS011;3430;51.192;6.048;2023-11-21T00:32:22;2.87;;;2.67;;
6785;SDS011;3430;51.192;6.048;2023-11-21T00:34:47;3.20;;;2.60;;
6785;SDS011;3430;51.192;6.048;2023-11-21T00:37:12;2.57;;;2.37;;
6785;SDS011;3430;51.192;6.048;2023-11-21T00:39:38;3.57;;;2.60;;
6785;SDS011;3430;51.192;6.048;2023-11-21T00:42:03;4.07;;;2.67;;
6785;SDS011;3430;51.192;6.048;2023-11-21T00:44:30;3.27;;;2.73;;
6785;SDS011;3430;51.192;6.048;2023-11-21T00:46:55;2.47;;;2.27;;
6785;SDS011;3430;51.192;6.048;2023-11-21T00:49:20;3.93;;;2.60;;
6785;SDS011;3430;51.192;6.048;2023-11-21T00:51:46;2.93;;;2.50;;
6785;SDS011;3430;51.192;6.048;2023-11-21T00:54:11;2.80;;;2.40;;
6785;SDS011;3430;51.192;6.048;2023-11-21T00:56:37;2.50;;;2.30;;
6785;SDS011;3430;51.192;6.048;2023-11-21T00:59:02;2.57;;;2.37;;
6785;SDS011;3430;51.192;6.048;2023-11-21T01:01:30;2.50;;;2.30;;
6785;SDS011;3430;51.192;6.048;2023-11-21T01:03:55;4.17;;;3.07;;
6785;SDS011;3430;51.192;6.048;2023-11-21T01:06:21;3.20;;;2.90;;
6785;SDS011;3430;51.192;6.048;2023-11-21T01:08:46;3.00;;;2.57;;
6785;SDS011;3430;51.192;6.048;2023-11-21T01:11:11;3.30;;;2.77;;
6785;SDS011;3430;51.192;6.048;2023-11-21T01:13:40;3.00;;;2.17;;
6785;SDS011;3430;51.192;6.048;2023-11-21T01:16:07;3.80;;;2.70;;
6785;SDS011;3430;51.192;6.048;2023-11-21T01:18:33;3.07;;;2.77;;
6785;SDS011;3430;51.192;6.048;2023-11-21T01:20:58;2.67;;;2.47;;
6785;SDS011;3430;51.192;6.048;2023-11-21T01:23:25;3.00;;;2.70;;
6785;SDS011;3430;51.192;6.048;2023-11-21T01:25:50;2.37;;;2.13;;
6785;SDS011;3430;51.192;6.048;2023-11-21T01:28:17;3.10;;;2.80;;
6785;SDS011;3430;51.192;6.048;2023-11-21T01:30:42;3.33;;;3.03;;
6785;SDS011;3430;51.192;6.048;2023-11-21T01:33:07;2.77;;;2.50;;
6785;SDS011;3430;51.192;6.048;2023-11-21T01:35:33;4.47;;;2.50;;
6785;SDS011;3430;51.192;6.048;2023-11-21T01:37:59;3.07;;;2.53;;
6785;SDS011;3430;51.192;6.048;2023-11-21T01:40:24;2.80;;;2.60;;
6785;SDS011;3430;51.192;6.048;2023-11-21T01:42:49;2.87;;;2.60;;
6785;SDS011;3430;51.192;6.048;2023-11-21T01:45:15;2.90;;;2.70;;
6785;SDS011;3430;51.192;6.048;2023-11-21T01:47:41;4.13;;;3.13;;
6785;SDS011;3430;51.192;6.048;2023-11-21T01:50:07;6.70;;;3.63;;
6785;SDS011;3430;51.192;6.048;2023-11-21T01:52:33;5.13;;;2.60;;
6785;SDS011;3430;51.192;6.048;2023-11-21T01:54:59;3.60;;;2.70;;
6785;SDS011;3430;51.192;6.048;2023-11-21T01:57:25;6.83;;;3.03;;
6785;SDS011;3430;51.192;6.048;2023-11-21T01:59:50;5.97;;;2.83;;
6785;SDS011;3430;51.192;6.048;2023-11-21T02:02:18;3.30;;;2.50;;
6785;SDS011;3430;51.192;6.048;2023-11-21T02:04:44;3.13;;;2.83;;
6785;SDS011;3430;51.192;6.048;2023-11-21T02:07:09;3.37;;;2.83;;
6785;SDS011;3430;51.192;6.048;2023-11-21T02:09:35;3.90;;;2.80;;
6785;SDS011;3430;51.192;6.048;2023-11-21T02:12:03;3.20;;;2.90;;
6785;SDS011;3430;51.192;6.048;2023-11-21T02:14:29;3.20;;;2.90;;
6785;SDS011;3430;51.192;6.048;2023-11-21T02:16:56;4.10;;;3.13;;
6785;SDS011;3430;51.192;6.048;2023-11-21T02:19:25;2.90;;;2.57;;
6785;SDS011;3430;51.192;6.048;2023-11-21T02:21:51;4.23;;;2.87;;
6785;SDS011;3430;51.192;6.048;2023-11-21T02:24:23;2.97;;;2.67;;
6785;SDS011;3430;51.192;6.048;2023-11-21T02:26:49;3.57;;;3.03;;
6785;SDS011;3430;51.192;6.048;2023-11-21T02:29:18;5.53;;;2.97;;
6785;SDS011;3430;51.192;6.048;2023-11-21T02:31:46;3.57;;;3.27;;
6785;SDS011;3430;51.192;6.048;2023-11-21T02:34:15;6.50;;;2.63;;
6785;SDS011;3430;51.192;6.048;2023-11-21T02:36:41;3.90;;;3.00;;
6785;SDS011;3430;51.192;6.048;2023-11-21T02:39:07;3.40;;;3.10;;
6785;SDS011;3430;51.192;6.048;2023-11-21T02:41:33;4.03;;;3.30;;
6785;SDS011;3430;51.192;6.048;2023-11-21T02:43:59;3.63;;;3.07;;
6785;SDS011;3430;51.192;6.048;2023-11-21T02:46:25;3.13;;;2.90;;
6785;SDS011;3430;51.192;6.048;2023-11-21T02:48:50;3.77;;;2.80;;
6785;SDS011;3430;51.192;6.048;2023-11-21T02:51:16;3.30;;;2.97;;
6785;SDS011;3430;51.192;6.048;2023-11-21T02:53:41;3.10;;;2.80;;
6785;SDS011;3430;51.192;6.048;2023-11-21T02:56:07;2.87;;;2.67;;
6785;SDS011;3430;51.192;6.048;2023-11-21T02:58:32;3.57;;;3.27;;
6785;SDS011;3430;51.192;6.048;2023-11-21T03:00:58;3.30;;;3.00;;
6785;SDS011;3430;51.192;6.048;2023-11-21T03:03:23;3.83;;;3.07;;
6785;SDS011;3430;51.192;6.048;2023-11-21T03:05:49;3.77;;;3.27;;
6785;SDS011;3430;51.192;6.048;2023-11-21T03:08:15;3.40;;;2.93;;
6785;SDS011;3430;51.192;6.048;2023-11-21T03:10:40;3.70;;;2.80;;
6785;SDS011;3430;51.192;6.048;2023-11-21T03:13:05;5.00;;;3.53;;
6785;SDS011;3430;51.192;6.048;2023-11-21T03:15:31;4.77;;;3.17;;
6785;SDS011;3430;51.192;6.048;2023-11-21T03:17:57;3.37;;;3.07;;
6785;SDS011;3430;51.192;6.048;2023-11-21T03:20:23;2.97;;;2.67;;
6785;SDS011;3430;51.192;6.048;2023-11-21T03:22:48;4.47;;;3.17;;
6785;SDS011;3430;51.192;6.048;2023-11-21T03:25:14;3.63;;;3.23;;
6785;SDS011;3430;51.192;6.048;2023-11-21T03:27:41;4.60;;;3.93;;
6785;SDS011;3430;51.192;6.048;2023-11-21T03:30:07;4.20;;;3.60;;
6785;SDS011;3430;51.192;6.048;2023-11-21T03:32:33;3.40;;;3.10;;
6785;SDS011;3430;51.192;6.048;2023-11-21T03:34:59;5.17;;;3.47;;
6785;SDS011;3430;51.192;6.048;2023-11-21T03:37:25;5.50;;;3.37;;
6785;SDS011;3430;51.192;6.048;2023-11-21T03:39:52;5.33;;;3.10;;
6785;SDS011;3430;51.192;6.048;2023-11-21T03:42:18;4.03;;;3.33;;
6785;SDS011;3430;51.192;6.048;2023-11-21T03:44:43;5.47;;;3.00;;
6785;SDS011;3430;51.192;6.048;2023-11-21T03:47:09;3.03;;;2.70;;
6785;SDS011;3430;51.192;6.048;2023-11-21T03:49:35;5.50;;;3.27;;
6785;SDS011;3430;51.192;6.048;2023-11-21T03:52:00;3.93;;;3.13;;
6785;SDS011;3430;51.192;6.048;2023-11-21T03:54:26;3.97;;;2.90;;
6785;SDS011;3430;51.192;6.048;2023-11-21T03:56:51;5.53;;;3.63;;
6785;SDS011;3430;51.192;6.048;2023-11-21T03:59:17;3.43;;;3.10;;
6785;SDS011;3430;51.192;6.048;2023-11-21T04:01:42;4.87;;;3.30;;
6785;SDS011;3430;51.192;6.048;2023-11-21T04:04:08;3.77;;;3.40;;
6785;SDS011;3430;51.192;6.048;2023-11-21T04:06:33;3.83;;;3.13;;
6785;SDS011;3430;51.192;6.048;2023-11-21T04:09:00;5.73;;;3.60;;
6785;SDS011;3430;51.192;6.048;2023-11-21T04:11:25;5.30;;;3.60;;
6785;SDS011;3430;51.192;6.048;2023-11-21T04:13:51;4.40;;;3.70;;
6785;SDS011;3430;51.192;6.048;2023-11-21T04:16:16;4.07;;;3.20;;
6785;SDS011;3430;51.192;6.048;2023-11-21T04:18:41;3.77;;;3.47;;
6785;SDS011;3430;51.192;6.048;2023-11-21T04:21:07;3.17;;;2.77;;
6785;SDS011;3430;51.192;6.048;2023-11-21T04:23:33;4.03;;;3.30;;
6785;SDS011;3430;51.192;6.048;2023-11-21T04:25:59;6.33;;;3.77;;
6785;SDS011;3430;51.192;6.048;2023-11-21T04:28:25;3.97;;;3.33;;
6785;SDS011;3430;51.192;6.048;2023-11-21T04:30:50;4.83;;;3.50;;
6785;SDS011;3430;51.192;6.048;2023-11-21T04:33:16;3.93;;;3.13;;
6785;SDS011;3430;51.192;6.048;2023-11-21T04:35:41;4.00;;;3.70;;
6785;SDS011;3430;51.192;6.048;2023-11-21T04:38:07;4.10;;;3.70;;
6785;SDS011;3430;51.192;6.048;2023-11-21T04:40:32;5.80;;;3.73;;
6785;SDS011;3430;51.192;6.048;2023-11-21T04:42:59;4.67;;;3.57;;
6785;SDS011;3430;51.192;6.048;2023-11-21T04:45:24;4.07;;;3.27;;
6785;SDS011;3430;51.192;6.048;2023-11-21T04:47:50;4.77;;;3.90;;
6785;SDS011;3430;51.192;6.048;2023-11-21T04:50:15;4.90;;;4.07;;
6785;SDS011;3430;51.192;6.048;2023-11-21T04:52:41;4.33;;;3.33;;
6785;SDS011;3430;51.192;6.048;2023-11-21T04:55:06;4.47;;;3.40;;
6785;SDS011;3430;51.192;6.048;2023-11-21T04:57:35;4.70;;;3.40;;
6785;SDS011;3430;51.192;6.048;2023-11-21T05:00:00;4.23;;;3.57;;
6785;SDS011;3430;51.192;6.048;2023-11-21T05:02:26;3.87;;;3.40;;
6785;SDS011;3430;51.192;6.048;2023-11-21T05:04:51;6.43;;;3.90;;
6785;SDS011;3430;51.192;6.048;2023-11-21T05:07:18;6.80;;;3.93;;
6785;SDS011;3430;51.192;6.048;2023-11-21T05:09:43;4.20;;;3.00;;
6785;SDS011;3430;51.192;6.048;2023-11-21T05:12:12;3.50;;;2.97;;
6785;SDS011;3430;51.192;6.048;2023-11-21T05:14:37;3.70;;;3.27;;
6785;SDS011;3430;51.192;6.048;2023-11-21T05:17:02;4.47;;;3.73;;
6785;SDS011;3430;51.192;6.048;2023-11-21T05:19:29;6.03;;;4.13;;
6785;SDS011;3430;51.192;6.048;2023-11-21T05:21:55;3.73;;;3.30;;
6785;SDS011;3430;51.192;6.048;2023-11-21T05:24:20;5.77;;;3.03;;
6785;SDS011;3430;51.192;6.048;2023-11-21T05:26:46;3.60;;;3.00;;
6785;SDS011;3430;51.192;6.048;2023-11-21T05:29:11;4.93;;;3.63;;
6785;SDS011;3430;51.192;6.048;2023-11-21T05:31:36;3.27;;;2.97;;
6785;SDS011;3430;51.192;6.048;2023-11-21T05:34:02;4.50;;;4.10;;
6785;SDS011;3430;51.192;6.048;2023-11-21T05:36:28;5.63;;;3.70;;
6785;SDS011;3430;51.192;6.048;2023-11-21T05:38:53;5.00;;;3.63;;
6785;SDS011;3430;51.192;6.048;2023-11-21T05:41:19;5.50;;;3.60;;
6785;SDS011;3430;51.192;6.048;2023-11-21T05:43:44;7.80;;;3.60;;
6785;SDS011;3430;51.192;6.048;2023-11-21T05:46:10;4.07;;;3.67;;
6785;SDS011;3430;51.192;6.048;2023-11-21T05:48:35;4.90;;;3.83;;
6785;SDS011;3430;51.192;6.048;2023-11-21T05:51:03;5.97;;;3.40;;
6785;SDS011;3430;51.192;6.048;2023-11-21T05:53:29;3.67;;;3.30;;
6785;SDS011;3430;51.192;6.048;2023-11-21T05:55:55;5.07;;;3.27;;
6785;SDS011;3430;51.192;6.048;2023-11-21T05:58:20;6.53;;;3.93;;
6785;SDS011;3430;51.192;6.048;2023-11-21T06:00:46;3.93;;;3.53;;
6785;SDS011;3430;51.192;6.048;2023-11-21T06:03:11;5.77;;;3.90;;
6785;SDS011;3430;51.192;6.048;2023-11-21T06:05:37;4.50;;;3.80;;
6785;SDS011;3430;51.192;6.048;2023-11-21T06:08:02;8.97;;;4.17;;
6785;SDS011;3430;51.192;6.048;2023-11-21T06:10:28;9.53;;;3.73;;
6785;SDS011;3430;51.192;6.048;2023-11-21T06:12:53;5.53;;;3.50;;
6785;SDS011;3430;51.192;6.048;2023-11-21T06:15:19;5.50;;;3.87;;
6785;SDS011;3430;51.192;6.048;2023-11-21T06:17:48;4.03;;;3.53;;
6785;SDS011;3430;51.192;6.048;2023-11-21T06:20:19;5.43;;;3.73;;
6785;SDS011;3430;51.192;6.048;2023-11-21T06:22:46;7.87;;;4.67;;
6785;SDS011;3430;51.192;6.048;2023-11-21T06:25:12;6.30;;;3.83;;
6785;SDS011;3430;51.192;6.048;2023-11-21T06:27:38;6.07;;;4.00;;
6785;SDS011;3430;51.192;6.048;2023-11-21T06:30:04;6.17;;;4.40;;
6785;SDS011;3430;51.192;6.048;2023-11-21T06:32:30;12.67;;;4.50;;
6785;SDS011;3430;51.192;6.048;2023-11-21T06:34:55;6.17;;;4.10;;
6785;SDS011;3430;51.192;6.048;2023-11-21T06:37:21;7.00;;;4.13;;
6785;SDS011;3430;51.192;6.048;2023-11-21T06:39:49;7.37;;;4.00;;
6785;SDS011;3430;51.192;6.048;2023-11-21T06:42:17;5.13;;;3.70;;
6785;SDS011;3430;51.192;6.048;2023-11-21T06:44:44;5.33;;;4.03;;
6785;SDS011;3430;51.192;6.048;2023-11-21T06:47:09;4.53;;;4.00;;
6785;SDS011;3430;51.192;6.048;2023-11-21T06:49:35;6.33;;;4.43;;
6785;SDS011;3430;51.192;6.048;2023-11-21T06:52:01;5.70;;;3.70;;
6785;SDS011;3430;51.192;6.048;2023-11-21T06:54:28;5.93;;;4.27;;
6785;SDS011;3430;51.192;6.048;2023-11-21T06:56:53;4.43;;;3.90;;
6785;SDS011;3430;51.192;6.048;2023-11-21T06:59:19;6.63;;;4.37;;
6785;SDS011;3430;51.192;6.048;2023-11-21T07:01:44;6.87;;;4.60;;
6785;SDS011;3430;51.192;6.048;2023-11-21T07:04:10;7.33;;;4.20;;
6785;SDS011;3430;51.192;6.048;2023-11-21T07:06:35;5.70;;;3.83;;
6785;SDS011;3430;51.192;6.048;2023-11-21T07:09:00;6.97;;;4.60;;
6785;SDS011;3430;51.192;6.048;2023-11-21T07:11:26;6.83;;;3.90;;
6785;SDS011;3430;51.192;6.048;2023-11-21T07:13:52;10.40;;;4.63;;
6785;SDS011;3430;51.192;6.048;2023-11-21T07:16:17;4.53;;;4.00;;
6785;SDS011;3430;51.192;6.048;2023-11-21T07:18:44;7.43;;;4.27;;
6785;SDS011;3430;51.192;6.048;2023-11-21T07:21:12;4.17;;;3.80;;
6785;SDS011;3430;51.192;6.048;2023-11-21T07:23:38;6.13;;;4.30;;
6785;SDS011;3430;51.192;6.048;2023-11-21T07:26:03;5.03;;;3.53;;
6785;SDS011;3430;51.192;6.048;2023-11-21T07:28:33;6.27;;;4.40;;
6785;SDS011;3430;51.192;6.048;2023-11-21T07:30:59;6.10;;;3.93;;
6785;SDS011;3430;51.192;6.048;2023-11-21T07:33:25;4.50;;;3.77;;
6785;SDS011;3430;51.192;6.048;2023-11-21T07:35:51;5.57;;;3.90;;
6785;SDS011;3430;51.192;6.048;2023-11-21T07:38:17;7.13;;;4.30;;
6785;SDS011;3430;51.192;6.048;2023-11-21T07:40:42;5.77;;;3.90;;
6785;SDS011;3430;51.192;6.048;2023-11-21T07:43:08;6.93;;;4.77;;
6785;SDS011;3430;51.192;6.048;2023-11-21T07:45:34;9.47;;;4.23;;
6785;SDS011;3430;51.192;6.048;2023-11-21T07:47:59;6.20;;;4.70;;
6785;SDS011;3430;51.192;6.048;2023-11-21T07:50:26;6.83;;;4.30;;
6785;SDS011;3430;51.192;6.048;2023-11-21T07:52:52;7.90;;;4.57;;
6785;SDS011;3430;51.192;6.048;2023-11-21T07:55:19;5.13;;;4.07;;
6785;SDS011;3430;51.192;6.048;2023-11-21T07:57:45;7.30;;;4.70;;
6785;SDS011;3430;51.192;6.048;2023-11-21T08:00:10;4.57;;;3.87;;
6785;SDS011;3430;51.192;6.048;2023-11-21T08:02:37;5.67;;;4.23;;
6785;SDS011;3430;51.192;6.048;2023-11-21T08:05:03;7.10;;;3.97;;
6785;SDS011;3430;51.192;6.048;2023-11-21T08:07:29;11.30;;;4.57;;
6785;SDS011;3430;51.192;6.048;2023-11-21T08:09:54;7.47;;;4.53;;
6785;SDS011;3430;51.192;6.048;2023-11-21T08:12:20;6.00;;;3.90;;
6785;SDS011;3430;51.192;6.048;2023-11-21T08:14:46;5.90;;;4.27;;
6785;SDS011;3430;51.192;6.048;2023-11-21T08:17:11;6.63;;;4.07;;
6785;SDS011;3430;51.192;6.048;2023-11-21T08:19:36;8.10;;;4.50;;
6785;SDS011;3430;51.192;6.048;2023-11-21T08:22:03;7.07;;;4.43;;
6785;SDS011;3430;51.192;6.048;2023-11-21T08:24:28;11.43;;;4.60;;
6785;SDS011;3430;51.192;6.048;2023-11-21T08:26:53;9.03;;;4.73;;
6785;SDS011;3430;51.192;6.048;2023-11-21T08:29:19;12.30;;;4.97;;
6785;SDS011;3430;51.192;6.048;2023-11-21T08:31:44;6.93;;;4.33;;
6785;SDS011;3430;51.192;6.048;2023-11-21T08:34:12;8.43;;;4.60;;
6785;SDS011;3430;51.192;6.048;2023-11-21T08:36:44;6.77;;;5.13;;
6785;SDS011;3430;51.192;6.048;2023-11-21T08:39:10;7.20;;;4.47;;
6785;SDS011;3430;51.192;6.048;2023-11-21T08:41:36;9.20;;;5.30;;
6785;SDS011;3430;51.192;6.048;2023-11-21T08:44:01;6.37;;;4.33;;
6785;SDS011;3430;51.192;6.048;2023-11-21T08:46:27;6.87;;;4.83;;
6785;SDS011;3430;51.192;6.048;2023-11-21T08:48:52;9.60;;;4.40;;
6785;SDS011;3430;51.192;6.048;2023-11-21T08:51:18;7.03;;;4.50;;
6785;SDS011;3430;51.192;6.048;2023-11-21T08:53:43;7.03;;;4.80;;
6785;SDS011;3430;51.192;6.048;2023-11-21T08:56:12;8.00;;;4.40;;
6785;SDS011;3430;51.192;6.048;2023-11-21T08:58:39;5.23;;;4.10;;
6785;SDS011;3430;51.192;6.048;2023-11-21T09:01:04;10.53;;;5.13;;
6785;SDS011;3430;51.192;6.048;2023-11-21T09:03:31;8.07;;;4.57;;
6785;SDS011;3430;51.192;6.048;2023-11-21T09:05:59;6.17;;;3.80;;
6785;SDS011;3430;51.192;6.048;2023-11-21T09:08:24;8.00;;;4.60;;
6785;SDS011;3430;51.192;6.048;2023-11-21T09:10:50;9.10;;;4.50;;
6785;SDS011;3430;51.192;6.048;2023-11-21T09:13:15;6.33;;;4.80;;
6785;SDS011;3430;51.192;6.048;2023-11-21T09:15:42;6.77;;;4.17;;
6785;SDS011;3430;51.192;6.048;2023-11-21T09:18:12;6.17;;;4.20;;
6785;SDS011;3430;51.192;6.048;2023-11-21T09:20:38;7.13;;;4.40;;
6785;SDS011;3430;51.192;6.048;2023-11-21T09:23:03;8.73;;;4.53;;
6785;SDS011;3430;51.192;6.048;2023-11-21T09:25:28;8.70;;;4.43;;
6785;SDS011;3430;51.192;6.048;2023-11-21T09:27:54;6.53;;;4.60;;
6785;SDS011;3430;51.192;6.048;2023-11-21T09:30:19;5.43;;;3.83;;
6785;SDS011;3430;51.192;6.048;2023-11-21T09:32:45;10.87;;;4.83;;
6785;SDS011;3430;51.192;6.048;2023-11-21T09:35:10;6.93;;;4.40;;
6785;SDS011;3430;51.192;6.048;2023-11-21T09:37:36;9.17;;;5.13;;
6785;SDS011;3430;51.192;6.048;2023-11-21T09:40:03;8.13;;;5.37;;
6785;SDS011;3430;51.192;6.048;2023-11-21T09:47:30;9.40;;;4.50;;
6785;SDS011;3430;51.192;6.048;2023-11-21T09:49:56;7.03;;;4.50;;
6785;SDS011;3430;51.192;6.048;2023-11-21T09:52:22;8.20;;;4.83;;
6785;SDS011;3430;51.192;6.048;2023-11-21T09:54:50;7.00;;;5.07;;
6785;SDS011;3430;51.192;6.048;2023-11-21T09:57:16;8.20;;;5.87;;
6785;SDS011;3430;51.192;6.048;2023-11-21T09:59:43;9.47;;;5.80;;
6785;SDS011;3430;51.192;6.048;2023-11-21T10:02:09;10.07;;;5.37;;
6785;SDS011;3430;51.192;6.048;2023-11-21T10:04:38;8.33;;;5.13;;
6785;SDS011;3430;51.192;6.048;2023-11-21T10:07:03;8.63;;;5.57;;
6785;SDS011;3430;51.192;6.048;2023-11-21T10:09:34;8.90;;;5.40;;
6785;SDS011;3430;51.192;6.048;2023-11-21T10:11:59;7.40;;;5.30;;
6785;SDS011;3430;51.192;6.048;2023-11-21T10:14:25;7.50;;;4.30;;
6785;SDS011;3430;51.192;6.048;2023-11-21T10:16:54;8.47;;;4.70;;
6785;SDS011;3430;51.192;6.048;2023-11-21T10:19:20;9.50;;;5.30;;
6785;SDS011;3430;51.192;6.048;2023-11-21T10:21:46;8.37;;;4.73;;
6785;SDS011;3430;51.192;6.048;2023-11-21T10:24:11;6.87;;;4.40;;
6785;SDS011;3430;51.192;6.048;2023-11-21T10:26:37;11.20;;;4.87;;
6785;SDS011;3430;51.192;6.048;2023-11-21T10:29:03;7.83;;;4.73;;
6785;SDS011;3430;51.192;6.048;2023-11-21T10:31:32;5.43;;;4.37;;
6785;SDS011;3430;51.192;6.048;2023-11-21T10:34:17;11.03;;;4.80;;
6785;SDS011;3430;51.192;6.048;2023-11-21T10:36:43;8.20;;;5.00;;
6785;SDS011;3430;51.192;6.048;2023-11-21T10:39:08;6.93;;;4.77;;
6785;SDS011;3430;51.192;6.048;2023-11-21T10:41:37;21.60;;;6.37;;
6785;SDS011;3430;51.192;6.048;2023-11-21T10:44:02;9.03;;;5.83;;
6785;SDS011;3430;51.192;6.048;2023-11-21T10:46:34;7.13;;;4.67;;
6785;SDS011;3430;51.192;6.048;2023-11-21T10:49:00;7.37;;;4.57;;
6785;SDS011;3430;51.192;6.048;2023-11-21T10:51:25;7.40;;;5.17;;
6785;SDS011;3430;51.192;6.048;2023-11-21T10:53:51;10.63;;;5.30;;
6785;SDS011;3430;51.192;6.048;2023-11-21T10:56:16;8.40;;;4.67;;
6785;SDS011;3430;51.192;6.048;2023-11-21T10:58:48;13.37;;;4.90;;
6785;SDS011;3430;51.192;6.048;2023-11-21T11:01:13;8.90;;;5.07;;
6785;SDS011;3430;51.192;6.048;2023-11-21T11:03:41;9.73;;;5.60;;
6785;SDS011;3430;51.192;6.048;2023-11-21T11:06:07;10.27;;;4.93;;
6785;SDS011;3430;51.192;6.048;2023-11-21T11:08:39;9.70;;;5.40;;
6785;SDS011;3430;51.192;6.048;2023-11-21T11:11:05;8.50;;;4.73;;
6785;SDS011;3430;51.192;6.048;2023-11-21T11:13:31;6.57;;;4.33;;
6785;SDS011;3430;51.192;6.048;2023-11-21T11:15:59;9.87;;;5.07;;
6785;SDS011;3430;51.192;6.048;2023-11-21T11:18:27;10.50;;;4.60;;
6785;SDS011;3430;51.192;6.048;2023-11-21T11:20:53;8.10;;;5.70;;
6785;SDS011;3430;51.192;6.048;2023-11-21T11:38:07;11.20;;;5.50;;
6785;SDS011;3430;51.192;6.048;2023-11-21T11:40:45;10.70;;;5.87;;
6785;SDS011;3430;51.192;6.048;2023-11-21T11:43:11;10.03;;;6.10;;
6785;SDS011;3430;51.192;6.048;2023-11-21T11:45:36;9.50;;;5.20;;
6785;SDS011;3430;51.192;6.048;2023-11-21T11:48:06;9.70;;;5.40;;
6785;SDS011;3430;51.192;6.048;2023-11-21T11:50:31;14.23;;;5.93;;
6785;SDS011;3430;51.192;6.048;2023-11-21T11:53:18;8.80;;;5.30;;
6785;SDS011;3430;51.192;6.048;2023-11-21T11:55:44;11.53;;;5.53;;
6785;SDS011;3430;51.192;6.048;2023-11-21T11:58:12;12.20;;;6.30;;
6785;SDS011;3430;51.192;6.048;2023-11-21T12:00:37;9.77;;;4.97;;
6785;SDS011;3430;51.192;6.048;2023-11-21T12:03:05;9.20;;;5.73;;
6785;SDS011;3430;51.192;6.048;2023-11-21T12:05:32;11.30;;;5.87;;
6785;SDS011;3430;51.192;6.048;2023-11-21T12:08:02;7.73;;;4.73;;
6785;SDS011;3430;51.192;6.048;2023-11-21T12:10:28;8.03;;;4.40;;
6785;SDS011;3430;51.192;6.048;2023-11-21T12:12:54;7.80;;;4.93;;
6785;SDS011;3430;51.192;6.048;2023-11-21T12:15:20;12.07;;;5.83;;
6785;SDS011;3430;51.192;6.048;2023-11-21T12:17:46;9.77;;;5.33;;
6785;SDS011;3430;51.192;6.048;2023-11-21T12:20:13;7.43;;;5.23;;
6785;SDS011;3430;51.192;6.048;2023-11-21T12:22:46;12.27;;;5.13;;
6785;SDS011;3430;51.192;6.048;2023-11-21T12:25:13;10.00;;;5.67;;
6785;SDS011;3430;51.192;6.048;2023-11-21T12:27:41;10.37;;;5.60;;
6785;SDS011;3430;51.192;6.048;2023-11-21T12:30:07;9.83;;;5.40;;
6785;SDS011;3430;51.192;6.048;2023-11-21T12:32:38;8.40;;;5.27;;
6785;SDS011;3430;51.192;6.048;2023-11-21T12:35:03;9.20;;;5.20;;
6785;SDS011;3430;51.192;6.048;2023-11-21T12:37:31;10.67;;;5.43;;
6785;SDS011;3430;51.192;6.048;2023-11-21T12:39:57;9.17;;;5.30;;
6785;SDS011;3430;51.192;6.048;2023-11-21T12:42:23;13.57;;;6.37;;
6785;SDS011;3430;51.192;6.048;2023-11-21T12:44:48;10.63;;;6.07;;
6785;SDS011;3430;51.192;6.048;2023-11-21T12:47:30;11.40;;;5.60;;
6785;SDS011;3430;51.192;6.048;2023-11-21T12:49:57;11.00;;;5.63;;
6785;SDS011;3430;51.192;6.048;2023-11-21T12:52:24;7.50;;;4.20;;
6785;SDS011;3430;51.192;6.048;2023-11-21T12:54:50;9.27;;;5.23;;
6785;SDS011;3430;51.192;6.048;2023-11-21T12:57:15;8.87;;;5.20;;
6785;SDS011;3430;51.192;6.048;2023-11-21T12:59:40;9.13;;;5.20;;
6785;SDS011;3430;51.192;6.048;2023-11-21T13:02:07;6.93;;;4.83;;
6785;SDS011;3430;51.192;6.048;2023-11-21T13:04:33;10.30;;;5.53;;
6785;SDS011;3430;51.192;6.048;2023-11-21T13:07:03;6.83;;;4.93;;
6785;SDS011;3430;51.192;6.048;2023-11-21T13:09:37;10.97;;;5.27;;
6785;SDS011;3430;51.192;6.048;2023-11-21T13:12:02;9.57;;;5.97;;
6785;SDS011;3430;51.192;6.048;2023-11-21T13:14:29;7.00;;;4.90;;
6785;SDS011;3430;51.192;6.048;2023-11-21T13:16:56;14.27;;;4.97;;
6785;SDS011;3430;51.192;6.048;2023-11-21T13:19:22;7.67;;;4.73;;
6785;SDS011;3430;51.192;6.048;2023-11-21T13:21:49;6.43;;;4.30;;
6785;SDS011;3430;51.192;6.048;2023-11-21T13:24:14;7.57;;;4.93;;
6785;SDS011;3430;51.192;6.048;2023-11-21T13:26:40;10.57;;;5.20;;
6785;SDS011;3430;51.192;6.048;2023-11-21T13:29:05;7.10;;;5.03;;
6785;SDS011;3430;51.192;6.048;2023-11-21T13:31:31;6.13;;;4.33;;
6785;SDS011;3430;51.192;6.048;2023-11-21T13:33:59;7.03;;;4.50;;
6785;SDS011;3430;51.192;6.048;2023-11-21T13:36:30;9.30;;;5.67;;
6785;SDS011;3430;51.192;6.048;2023-11-21T13:38:58;6.67;;;4.73;;
6785;SDS011;3430;51.192;6.048;2023-11-21T13:41:24;7.07;;;4.83;;
6785;SDS011;3430;51.192;6.048;2023-11-21T13:43:55;6.97;;;4.57;;
6785;SDS011;3430;51.192;6.048;2023-11-21T13:46:29;7.93;;;4.97;;
6785;SDS011;3430;51.192;6.048;2023-11-21T13:48:56;8.07;;;4.60;;
6785;SDS011;3430;51.192;6.048;2023-11-21T13:51:22;7.67;;;4.17;;
6785;SDS011;3430;51.192;6.048;2023-11-21T13:53:56;8.40;;;4.50;;
6785;SDS011;3430;51.192;6.048;2023-11-21T13:56:22;8.37;;;4.83;;
6785;SDS011;3430;51.192;6.048;2023-11-21T13:58:52;5.17;;;4.20;;
6785;SDS011;3430;51.192;6.048;2023-11-21T14:01:21;6.33;;;4.73;;
6785;SDS011;3430;51.192;6.048;2023-11-21T14:03:56;8.30;;;4.90;;
6785;SDS011;3430;51.192;6.048;2023-11-21T14:06:40;7.27;;;4.57;;
6785;SDS011;3430;51.192;6.048;2023-11-21T14:09:13;8.07;;;4.57;;
6785;SDS011;3430;51.192;6.048;2023-11-21T14:11:48;6.37;;;4.03;;
6785;SDS011;3430;51.192;6.048;2023-11-21T14:14:14;5.10;;;3.77;;
6785;SDS011;3430;51.192;6.048;2023-11-21T14:16:39;8.70;;;5.13;;
6785;SDS011;3430;51.192;6.048;2023-11-21T14:19:04;8.47;;;4.60;;
6785;SDS011;3430;51.192;6.048;2023-11-21T14:21:40;8.47;;;4.87;;
6785;SDS011;3430;51.192;6.048;2023-11-21T14:24:08;7.63;;;4.60;;
6785;SDS011;3430;51.192;6.048;2023-11-21T14:26:34;7.57;;;4.30;;
6785;SDS011;3430;51.192;6.048;2023-11-21T14:29:00;7.70;;;4.33;;
6785;SDS011;3430;51.192;6.048;2023-11-21T14:31:25;6.27;;;4.00;;
6785;SDS011;3430;51.192;6.048;2023-11-21T14:33:52;5.80;;;4.30;;
6785;SDS011;3430;51.192;6.048;2023-11-21T14:36:18;5.87;;;3.50;;
6785;SDS011;3430;51.192;6.048;2023-11-21T14:38:43;6.07;;;4.37;;
6785;SDS011;3430;51.192;6.048;2023-11-21T14:41:09;4.47;;;3.53;;
6785;SDS011;3430;51.192;6.048;2023-11-21T14:43:36;5.43;;;3.60;;
6785;SDS011;3430;51.192;6.048;2023-11-21T14:46:02;5.57;;;3.70;;
6785;SDS011;3430;51.192;6.048;2023-11-21T14:48:39;6.93;;;4.27;;
6785;SDS011;3430;51.192;6.048;2023-11-21T14:51:10;5.83;;;4.43;;
6785;SDS011;3430;51.192;6.048;2023-11-21T14:53:55;5.60;;;4.07;;
6785;SDS011;3430;51.192;6.048;2023-11-21T14:56:25;7.40;;;4.30;;
6785;SDS011;3430;51.192;6.048;2023-11-21T14:58:58;4.77;;;3.70;;
6785;SDS011;3430;51.192;6.048;2023-11-21T15:01:30;6.83;;;3.97;;
6785;SDS011;3430;51.192;6.048;2023-11-21T15:04:09;4.10;;;3.70;;
6785;SDS011;3430;51.192;6.048;2023-11-21T15:06:46;8.57;;;4.40;;
6785;SDS011;3430;51.192;6.048;2023-11-21T15:09:13;5.77;;;3.63;;
6785;SDS011;3430;51.192;6.048;2023-11-21T15:11:38;5.77;;;4.13;;
6785;SDS011;3430;51.192;6.048;2023-11-21T15:14:04;5.53;;;3.60;;
6785;SDS011;3430;51.192;6.048;2023-11-21T15:16:32;5.47;;;3.93;;
6785;SDS011;3430;51.192;6.048;2023-11-21T15:18:58;5.10;;;4.00;;
6785;SDS011;3430;51.192;6.048;2023-11-21T15:21:23;6.93;;;4.33;;
6785;SDS011;3430;51.192;6.048;2023-11-21T15:23:49;5.40;;;4.07;;
6785;SDS011;3430;51.192;6.048;2023-11-21T15:26:15;5.10;;;3.70;;
6785;SDS011;3430;51.192;6.048;2023-11-21T15:28:41;4.70;;;3.67;;
6785;SDS011;3430;51.192;6.048;2023-11-21T15:31:06;7.43;;;3.83;;